Time;durP1;ratioP1;P1;durP2;ratioP2;P2;SDS_P1;SDS_P2;PMS_P1;PMS_P2;Temp;Humidity;BMP_temperature;BMP_pressure;BME280_temperature;BME280_humidity;BME280_pressure;Samples;Min_cycle;Max_cycle;Signal;HPM_P1;HPM_P2
2024/02/07 05:16:47;;;;;;;27.40;15.90;;;;;;;4.33;100.00;99439.14;106476;1254;71107;-83
2024/02/07 05:19:14;;;;;;;35.80;19.10;;;;;;;4.30;100.00;99437.92;106378;1253;64089;-84
2024/02/07 05:21:42;;;;;;;24.30;15.80;;;;;;;4.29;100.00;99440.91;106049;1253;72665;-84
2024/02/07 05:24:10;;;;;;;22.80;15.10;;;;;;;4.27;100.00;99430.66;105957;1254;60977;-83
2024/02/07 05:26:38;;;;;;;19.90;12.70;;;;;;;4.24;100.00;99425.64;106020;1254;59642;-84
2024/02/07 05:29:05;;;;;;;16.30;11.50;;;;;;;4.22;100.00;99428.85;107886;1254;73041;-82
2024/02/07 05:31:32;;;;;;;13.20;10.00;;;;;;;4.22;100.00;99431.29;106744;1253;63446;-84
2024/02/07 05:33:59;;;;;;;15.70;10.50;;;;;;;4.23;100.00;99431.39;106107;1254;72525;-84
2024/02/07 05:36:26;;;;;;;15.40;10.10;;;;;;;4.24;100.00;99432.19;106303;1252;59691;-84
2024/02/07 05:38:53;;;;;;;20.70;11.70;;;;;;;4.25;100.00;99436.65;106082;1253;59752;-84
2024/02/07 05:41:21;;;;;;;14.90;10.10;;;;;;;4.27;100.00;99436.87;106530;1254;71676;-85
2024/02/07 05:43:48;;;;;;;13.40;9.90;;;;;;;4.30;100.00;99435.34;106216;1254;63164;-84
2024/02/07 05:46:15;;;;;;;12.30;9.50;;;;;;;4.32;100.00;99436.41;106031;1254;70460;-85
2024/02/07 05:48:42;;;;;;;15.20;10.80;;;;;;;4.36;100.00;99437.41;105929;1254;61045;-85
2024/02/07 05:51:22;;;;;;;14.20;10.10;;;;;;;4.40;100.00;99443.08;105923;1254;59978;-83
2024/02/07 05:53:49;;;;;;;15.10;10.40;;;;;;;4.44;100.00;99441.70;105883;1253;70821;-83
2024/02/07 05:56:16;;;;;;;12.50;9.10;;;;;;;4.46;100.00;99443.98;105722;1254;62713;-84
2024/02/07 05:58:47;;;;;;;15.50;8.80;;;;;;;4.51;100.00;99441.10;106051;1256;72712;-84
2024/02/07 06:01:14;;;;;;;12.50;9.00;;;;;;;4.58;100.00;99428.98;106087;1253;59882;-84
2024/02/07 06:03:41;;;;;;;18.90;9.80;;;;;;;4.66;100.00;99428.20;106036;1253;60328;-84
2024/02/07 06:06:08;;;;;;;14.20;9.50;;;;;;;4.76;100.00;99424.03;106143;1254;72981;-84
2024/02/07 06:08:35;;;;;;;20.00;8.80;;;;;;;4.86;100.00;99421.38;106228;1254;64137;-83
2024/02/07 06:11:05;;;;;;;12.80;8.90;;;;;;;5.00;100.00;99418.69;105956;1256;72474;-82
2024/02/07 06:13:32;;;;;;;14.20;9.10;;;;;;;5.19;100.00;99420.20;105730;1253;60203;-83
2024/02/07 06:15:59;;;;;;;14.80;7.80;;;;;;;5.48;100.00;99420.80;105927;1252;60518;-83
2024/02/07 06:18:26;;;;;;;15.50;9.10;;;;;;;5.83;100.00;99417.87;106679;1253;71929;-82
2024/02/07 06:20:55;;;;;;;9.80;7.20;;;;;;;6.20;100.00;99426.98;106492;1256;63582;-82
2024/02/07 06:23:22;;;;;;;12.50;7.70;;;;;;;6.58;100.00;99429.79;106096;1251;72989;-84
2024/02/07 06:25:49;;;;;;;11.40;6.80;;;;;;;7.03;100.00;99431.27;106298;1254;60201;-83
2024/02/07 06:28:17;;;;;;;12.50;7.50;;;;;;;7.49;100.00;99433.02;106113;1251;60156;-81
2024/02/07 06:30:43;;;;;;;12.50;7.10;;;;;;;7.84;100.00;99439.53;106135;1251;72813;-81
2024/02/07 06:33:12;;;;;;;11.40;6.80;;;;;;;8.02;100.00;99438.17;106686;1251;63815;-81
2024/02/07 06:35:40;;;;;;;9.10;6.80;;;;;;;8.02;100.00;99438.28;106152;1254;72606;-83
2024/02/07 06:38:08;;;;;;;11.50;7.90;;;;;;;7.92;100.00;99434.98;106212;1254;60906;-83
2024/02/07 06:40:36;;;;;;;9.60;6.90;;;;;;;7.75;100.00;99429.85;106249;1252;59663;-85
2024/02/07 06:43:05;;;;;;;9.40;6.90;;;;;;;7.49;100.00;99429.00;106196;1251;73020;-82
2024/02/07 06:45:32;;;;;;;9.20;7.60;;;;;;;7.25;100.00;99429.04;106058;1250;65131;-82
2024/02/07 06:47:58;;;;;;;10.00;6.40;;;;;;;7.08;100.00;99427.69;105998;1253;70869;-83
2024/02/07 06:50:25;;;;;;;14.00;8.40;;;;;;;6.94;100.00;99431.20;106020;1250;60071;-82
2024/02/07 06:52:54;;;;;;;20.30;11.30;;;;;;;6.86;100.00;99428.92;106214;1251;59760;-82
2024/02/07 06:55:23;;;;;;;11.80;8.20;;;;;;;6.82;100.00;99431.80;106172;1253;71449;-83
2024/02/07 06:57:50;;;;;;;9.10;7.30;;;;;;;6.79;100.00;99437.68;106049;1252;62322;-84
2024/02/07 07:00:17;;;;;;;11.20;7.20;;;;;;;6.75;100.00;99438.81;106092;1250;71476;-84
2024/02/07 07:02:44;;;;;;;8.70;5.90;;;;;;;6.68;100.00;99426.92;106161;1251;59706;-83
2024/02/07 07:05:11;;;;;;;10.80;7.30;;;;;;;6.63;100.00;99429.64;106227;1254;60321;-82
2024/02/07 07:07:39;;;;;;;13.40;8.20;;;;;;;6.66;100.00;99429.16;106417;1256;71570;-81
2024/02/07 07:10:06;;;;;;;12.30;7.00;;;;;;;6.70;100.00;99428.38;106275;1251;63929;-82
2024/02/07 07:12:33;;;;;;;14.90;7.80;;;;;;;6.72;100.00;99418.14;106225;1251;72934;-81
2024/02/07 07:15:00;;;;;;;10.50;6.80;;;;;;;6.75;100.00;99419.74;106018;1255;61562;-85
2024/02/07 07:17:27;;;;;;;10.80;6.60;;;;;;;6.77;100.00;99414.91;105889;1251;60026;-84
2024/02/07 07:19:54;;;;;;;12.70;6.60;;;;;;;6.77;100.00;99416.29;106038;1255;72338;-84
2024/02/07 07:22:23;;;;;;;10.70;6.70;;;;;;;6.79;100.00;99414.25;106092;1254;63795;-85
2024/02/07 07:24:50;;;;;;;9.30;7.00;;;;;;;6.81;100.00;99416.35;106388;1251;74022;-84
2024/02/07 07:27:18;;;;;;;8.60;5.80;;;;;;;6.89;100.00;99414.70;106224;1249;61610;-84
2024/02/07 07:29:45;;;;;;;7.40;5.80;;;;;;;7.00;100.00;99407.67;107379;1253;60341;-83
2024/02/07 07:32:14;;;;;;;11.30;6.30;;;;;;;7.14;100.00;99407.69;106189;1256;73145;-83
2024/02/07 07:34:41;;;;;;;7.20;5.10;;;;;;;7.28;100.00;99407.98;106110;1251;63816;-82
2024/02/07 07:37:09;;;;;;;11.50;5.60;;;;;;;7.41;100.00;99411.25;106106;1253;72705;-84
2024/02/07 07:39:36;;;;;;;7.60;4.70;;;;;;;7.55;100.00;99407.89;107289;1250;62274;-82
2024/02/07 07:42:04;;;;;;;9.90;5.90;;;;;;;7.68;100.00;99411.91;106850;1250;60320;-84
2024/02/07 07:44:32;;;;;;;8.80;4.50;;;;;;;7.82;100.00;99410.98;107340;1251;70709;-83
2024/02/07 07:47:01;;;;;;;14.50;8.50;;;;;;;7.93;100.00;99407.28;109080;1250;63638;-84
2024/02/07 07:49:42;;;;;;;6.70;5.10;;;;;;;8.05;100.00;99412.71;109103;1249;73995;-83
2024/02/07 07:52:13;;;;;;;6.60;4.80;;;;;;;8.15;100.00;99410.45;108628;1250;59519;-84
2024/02/07 07:54:40;;;;;;;9.10;4.90;;;;;;;8.22;100.00;99401.95;106923;1257;59753;-80
2024/02/07 07:57:07;;;;;;;9.50;3.60;;;;;;;8.28;100.00;99399.57;106310;1251;71738;-86
2024/02/07 07:59:34;;;;;;;8.00;4.10;;;;;;;8.33;100.00;99393.91;106649;1253;64089;-85
2024/02/07 08:02:01;;;;;;;5.90;4.00;;;;;;;8.32;100.00;99394.27;106543;1252;72769;-83
2024/02/07 08:04:29;;;;;;;8.70;4.80;;;;;;;8.31;100.00;99393.84;107759;1250;63204;-85
2024/02/07 08:06:57;;;;;;;6.20;4.20;;;;;;;8.36;100.00;99387.73;106522;1250;60245;-84
2024/02/07 08:09:24;;;;;;;5.00;3.70;;;;;;;8.49;100.00;99388.41;106199;1253;71836;-84
2024/02/07 08:11:50;;;;;;;4.90;4.10;;;;;;;8.63;100.00;99385.71;106243;1251;63915;-85
2024/02/07 08:14:17;;;;;;;9.40;4.20;;;;;;;8.74;100.00;99382.61;106370;1251;73048;-84
2024/02/07 08:16:46;;;;;;;5.00;3.10;;;;;;;8.86;100.00;99382.27;107716;1249;61508;-85
2024/02/07 08:19:14;;;;;;;8.40;4.80;;;;;;;9.00;100.00;99382.27;107845;1250;59631;-85
2024/02/07 08:21:42;;;;;;;6.40;3.30;;;;;;;9.13;100.00;99385.88;107686;1249;72138;-82
2024/02/07 08:24:09;;;;;;;6.00;3.80;;;;;;;9.23;100.00;99384.30;107680;1251;62213;-82
2024/02/07 08:26:36;;;;;;;8.20;4.00;;;;;;;9.31;100.00;99383.34;107763;1250;71454;-83
2024/02/07 08:29:04;;;;;;;8.10;2.90;;;;;;;9.35;100.00;99382.66;108183;1250;59996;-86
2024/02/07 08:31:31;;;;;;;6.40;3.40;;;;;;;9.37;100.00;99382.76;107908;1250;60088;-84
2024/02/07 08:33:59;;;;;;;7.50;3.40;;;;;;;9.35;100.00;99380.41;107932;1250;72096;-82
2024/02/07 08:36:28;;;;;;;5.70;3.60;;;;;;;9.35;100.00;99377.27;107593;1251;63882;-84
2024/02/07 08:38:56;;;;;;;9.70;3.20;;;;;;;9.35;100.00;99372.23;107728;1249;72398;-83
2024/02/07 08:41:23;;;;;;;9.10;4.30;;;;;;;9.33;100.00;99371.97;106648;1250;62054;-84
2024/02/07 08:43:50;;;;;;;7.40;4.40;;;;;;;9.31;100.00;99371.42;106474;1251;60457;-83
2024/02/07 08:46:17;;;;;;;7.40;4.40;;;;;;;9.27;100.00;99363.88;106463;1256;74130;-85
2024/02/07 08:48:47;;;;;;;6.00;3.90;;;;;;;9.23;100.00;99364.77;106623;1251;64575;-85
2024/02/07 08:51:16;;;;;;;6.80;4.00;;;;;;;9.17;100.00;99365.52;106416;1251;72415;-85
2024/02/07 08:53:43;;;;;;;6.60;3.50;;;;;;;9.12;100.00;99365.71;106184;1251;61077;-82
2024/02/07 08:56:10;;;;;;;6.00;4.50;;;;;;;9.09;100.00;99360.88;106271;1251;61201;-84
2024/02/07 08:58:38;;;;;;;6.50;4.20;;;;;;;9.08;100.00;99359.06;106271;1253;73059;-80
2024/02/07 09:01:08;;;;;;;8.10;4.40;;;;;;;9.06;100.00;99351.71;106425;1249;64944;-84
2024/02/07 09:03:36;;;;;;;7.00;3.30;;;;;;;9.03;100.00;99353.84;106361;1251;72621;-80
2024/02/07 09:06:03;;;;;;;6.40;3.80;;;;;;;9.03;100.00;99350.39;106243;1251;60784;-84
2024/02/07 09:08:31;;;;;;;6.50;3.80;;;;;;;9.03;100.00;99352.95;106374;1251;60430;-82
2024/02/07 09:10:58;;;;;;;10.80;3.40;;;;;;;9.05;100.00;99352.25;106473;1255;74311;-83
2024/02/07 09:13:26;;;;;;;6.60;4.20;;;;;;;9.07;100.00;99350.75;106493;1253;63921;-84
2024/02/07 09:15:53;;;;;;;8.70;3.60;;;;;;;9.11;100.00;99345.03;106365;1249;73672;-84
2024/02/07 09:18:25;;;;;;;6.60;3.50;;;;;;;9.19;100.00;99345.33;106437;1250;62299;-84
2024/02/07 09:20:53;;;;;;;5.30;3.30;;;;;;;9.27;100.00;99347.72;106249;1251;60546;-85
2024/02/07 09:23:23;;;;;;;7.40;3.80;;;;;;;9.30;100.00;99344.00;106483;1253;74072;-84
2024/02/07 09:25:49;;;;;;;7.70;3.20;;;;;;;9.33;100.00;99338.86;106543;1251;62838;-83
2024/02/07 09:28:16;;;;;;;5.30;3.60;;;;;;;9.37;100.00;99328.13;106411;1251;71710;-84
2024/02/07 09:30:43;;;;;;;7.40;4.10;;;;;;;9.41;100.00;99318.25;106433;1250;60697;-83
2024/02/07 09:33:11;;;;;;;5.60;3.90;;;;;;;9.44;100.00;99327.41;106444;1251;60426;-82
2024/02/07 09:35:38;;;;;;;7.60;4.40;;;;;;;9.49;100.00;99324.27;106186;1256;74679;-85
2024/02/07 09:38:06;;;;;;;6.30;3.70;;;;;;;9.52;100.00;99326.13;106604;1251;63964;-83
2024/02/07 09:40:32;;;;;;;4.80;3.80;;;;;;;9.56;100.00;99317.23;106583;1251;72274;-84
2024/02/07 09:42:59;;;;;;;7.60;4.70;;;;;;;9.64;100.00;99313.88;106536;1250;62071;-83
2024/02/07 09:45:26;;;;;;;5.70;4.60;;;;;;;9.67;100.00;99311.32;106567;1256;60501;-82
2024/02/07 09:48:21;;;;;;;6.20;4.30;;;;;;;9.70;100.00;99306.88;107277;1249;72796;-85
2024/02/07 09:50:53;;;;;;;5.50;4.30;;;;;;;9.77;100.00;99302.70;106950;1251;62553;-82
2024/02/07 09:53:21;;;;;;;5.40;3.90;;;;;;;9.81;100.00;99293.45;107109;1250;71229;-81
2024/02/07 09:55:48;;;;;;;10.50;4.60;;;;;;;9.90;100.00;99289.13;106397;1250;61615;-84
2024/02/07 09:58:15;;;;;;;6.30;3.70;;;;;;;10.00;100.00;99287.85;106580;1253;59614;-84
2024/02/07 10:00:43;;;;;;;6.60;4.30;;;;;;;10.08;100.00;99288.55;106508;1255;73112;-85
2024/02/07 10:03:13;;;;;;;9.50;5.00;;;;;;;10.19;100.00;99277.02;106162;1250;62801;-82
2024/02/07 10:05:50;;;;;;;6.50;3.90;;;;;;;10.31;100.00;99274.72;106312;1256;72992;-83
2024/02/07 10:08:17;;;;;;;5.30;4.30;;;;;;;10.50;100.00;99267.91;106487;1253;63012;-84
2024/02/07 10:10:50;;;;;;;4.90;3.50;;;;;;;10.81;100.00;99264.01;106874;1251;61498;-81
2024/02/07 10:13:17;;;;;;;6.40;4.20;;;;;;;11.11;100.00;99258.02;106685;1253;72680;-80
2024/02/07 10:15:44;;;;;;;11.00;3.70;;;;;;;11.33;100.00;99255.11;107910;1250;62870;-81
2024/02/07 10:18:11;;;;;;;6.10;3.00;;;;;;;11.52;100.00;99251.79;107378;1251;71582;-80
2024/02/07 10:20:39;;;;;;;3.50;2.60;;;;;;;11.79;100.00;99247.88;106804;1251;60696;-81
2024/02/07 10:23:09;;;;;;;4.40;3.60;;;;;;;12.23;100.00;99248.39;106537;1252;60447;-85
2024/02/07 10:25:38;;;;;;;4.40;3.10;;;;;;;12.69;100.00;99243.23;106659;1251;72927;-81
2024/02/07 10:28:06;;;;;;;5.30;2.50;;;;;;;13.00;100.00;99236.84;108475;1253;63848;-83
2024/02/07 10:30:33;;;;;;;6.90;2.90;;;;;;;13.31;100.00;99242.10;107138;1251;72953;-86
2024/02/07 10:33:01;;;;;;;6.50;3.80;;;;;;;13.51;100.00;99238.67;106366;1251;60465;-80
2024/02/07 10:35:29;;;;;;;5.40;3.40;;;;;;;13.63;99.97;99234.86;106389;1253;60456;-80
2024/02/07 10:37:57;;;;;;;7.40;2.50;;;;;;;13.82;99.90;99232.32;106483;1249;72639;-81
2024/02/07 10:40:28;;;;;;;7.60;3.00;;;;;;;14.17;94.54;99234.20;106579;1250;62376;-80
2024/02/07 10:42:57;;;;;;;4.20;2.30;;;;;;;14.56;89.69;99234.31;106359;1256;72935;-83
2024/02/07 10:45:26;;;;;;;2.60;2.30;;;;;;;14.91;85.25;99233.55;106518;1253;60450;-82
2024/02/07 10:47:56;;;;;;;4.90;2.50;;;;;;;15.23;83.01;99238.88;106400;1251;60348;-83
2024/02/07 10:50:24;;;;;;;4.40;2.90;;;;;;;15.53;78.99;99230.22;106203;1255;74074;-83
2024/02/07 10:52:52;;;;;;;3.80;2.10;;;;;;;15.75;77.32;99238.20;106357;1251;62554;-85
2024/02/07 10:55:21;;;;;;;3.70;2.20;;;;;;;15.87;75.21;99238.39;106270;1252;71300;-83
2024/02/07 10:57:50;;;;;;;2.70;2.00;;;;;;;15.95;74.38;99241.05;107271;1253;60450;-81
2024/02/07 11:00:18;;;;;;;4.70;2.00;;;;;;;16.01;75.15;99239.90;106634;1251;60549;-84
2024/02/07 11:02:50;;;;;;;5.20;2.10;;;;;;;16.23;74.19;99240.22;106446;1256;72195;-81
2024/02/07 11:05:18;;;;;;;3.90;2.50;;;;;;;16.55;71.11;99248.80;106465;1254;63264;-84
2024/02/07 11:07:46;;;;;;;5.20;2.50;;;;;;;16.79;68.63;99239.19;107773;1249;72209;-84
2024/02/07 11:10:15;;;;;;;4.80;1.70;;;;;;;17.01;65.60;99240.91;109160;1249;59620;-82
2024/02/07 11:12:48;;;;;;;3.10;1.30;;;;;;;17.15;63.54;99238.61;109155;1249;60307;-82
2024/02/07 11:15:19;;;;;;;3.30;1.40;;;;;;;17.12;60.84;99228.57;109285;1249;73741;-84
2024/02/07 11:17:48;;;;;;;2.60;1.80;;;;;;;17.02;61.30;99234.41;108093;1251;64077;-84
2024/02/07 11:20:15;;;;;;;3.20;1.40;;;;;;;17.03;61.80;99239.61;106705;1251;72901;-83
2024/02/07 11:22:46;;;;;;;3.90;1.50;;;;;;;17.14;60.68;99238.77;106816;1251;60918;-83
2024/02/07 11:25:16;;;;;;;2.70;1.60;;;;;;;17.19;60.36;99230.09;106133;1249;60476;-83
2024/02/07 11:27:44;;;;;;;3.10;1.80;;;;;;;17.12;59.64;99226.92;106098;1250;72763;-81
2024/02/07 11:30:11;;;;;;;6.90;2.20;;;;;;;16.97;58.58;99224.21;106150;1251;64107;-83
2024/02/07 11:32:38;;;;;;;4.40;1.70;;;;;;;16.66;59.85;99220.59;105997;1251;71560;-84
2024/02/07 11:35:09;;;;;;;3.90;1.70;;;;;;;16.37;61.41;99221.42;106176;1254;60439;-85
2024/02/07 11:37:37;;;;;;;4.20;1.90;;;;;;;16.12;62.22;99215.41;106166;1251;61121;-84
2024/02/07 11:40:09;;;;;;;2.90;1.60;;;;;;;15.93;63.70;99212.19;105948;1252;73187;-85
2024/02/07 11:42:37;;;;;;;5.40;1.90;;;;;;;15.73;63.76;99213.86;106125;1255;64867;-83
2024/02/07 11:45:04;;;;;;;3.10;1.80;;;;;;;15.48;65.49;99210.23;106190;1255;71755;-82
2024/02/07 11:47:34;;;;;;;2.10;1.60;;;;;;;15.25;66.13;99210.89;106029;1251;60531;-83
2024/02/07 11:50:06;;;;;;;3.20;1.80;;;;;;;15.03;67.81;99207.68;106208;1253;60571;-84
2024/02/07 11:52:38;;;;;;;3.10;1.50;;;;;;;14.79;69.71;99207.73;106168;1253;73109;-83
2024/02/07 11:55:08;;;;;;;2.40;1.20;;;;;;;14.60;71.98;99202.66;106235;1253;64404;-83
2024/02/07 11:57:38;;;;;;;3.30;1.50;;;;;;;14.36;73.61;99204.27;106176;1251;72816;-83
2024/02/07 12:00:16;;;;;;;1.80;1.20;;;;;;;14.08;76.24;99204.67;106697;1252;61449;-83
2024/02/07 12:02:51;;;;;;;7.40;3.20;;;;;;;13.90;80.58;99195.77;106444;1251;60536;-83
2024/02/07 12:05:19;;;;;;;2.90;2.00;;;;;;;13.75;82.10;99189.44;106315;1251;72305;-82
2024/02/07 12:07:46;;;;;;;2.70;1.70;;;;;;;13.63;83.43;99190.09;107331;1250;63903;-83
2024/02/07 12:10:14;;;;;;;2.90;1.60;;;;;;;13.52;85.59;99188.85;106302;1250;71712;-85
2024/02/07 12:12:42;;;;;;;2.30;1.40;;;;;;;13.38;88.03;99194.56;106214;1251;60501;-82
2024/02/07 12:15:10;;;;;;;2.80;2.30;;;;;;;13.23;90.93;99188.75;106179;1251;61103;-82
2024/02/07 12:17:42;;;;;;;3.30;1.80;;;;;;;13.08;93.66;99185.61;106229;1251;72955;-83
2024/02/07 12:20:10;;;;;;;6.00;2.90;;;;;;;12.93;96.33;99182.96;106925;1251;63085;-84
2024/02/07 12:22:38;;;;;;;4.10;2.10;;;;;;;12.78;98.44;99178.04;106115;1256;73084;-82
2024/02/07 12:25:06;;;;;;;3.30;1.90;;;;;;;12.62;99.19;99174.25;106440;1253;60474;-82
2024/02/07 12:27:34;;;;;;;4.30;2.10;;;;;;;12.52;100.00;99179.88;106452;1253;60444;-83
2024/02/07 12:30:01;;;;;;;6.60;2.20;;;;;;;12.42;100.00;99177.11;106056;1254;74693;-82
2024/02/07 12:32:29;;;;;;;7.10;1.90;;;;;;;12.31;100.00;99182.52;106040;1251;63347;-83
2024/02/07 12:34:59;;;;;;;4.80;2.30;;;;;;;12.22;100.00;99186.77;105979;1252;73778;-83
2024/02/07 12:37:26;;;;;;;4.70;2.60;;;;;;;12.15;100.00;99185.36;106253;1253;60831;-82
2024/02/07 12:39:53;;;;;;;4.30;2.10;;;;;;;12.09;100.00;99183.46;107589;1251;60818;-80
2024/02/07 12:42:21;;;;;;;4.00;2.20;;;;;;;12.02;100.00;99183.86;107001;1251;73018;-83
2024/02/07 12:44:51;;;;;;;4.00;2.40;;;;;;;11.96;100.00;99182.45;106304;1251;63990;-82
2024/02/07 12:47:21;;;;;;;3.30;2.10;;;;;;;11.89;100.00;99179.61;106113;1250;73563;-83
2024/02/07 12:49:51;;;;;;;3.70;1.90;;;;;;;11.81;100.00;99175.87;106218;1251;60361;-82
2024/02/07 12:52:19;;;;;;;5.60;1.70;;;;;;;11.76;100.00;99177.35;107890;1249;60399;-80
2024/02/07 12:54:46;;;;;;;5.70;1.60;;;;;;;11.72;100.00;99176.17;107011;1253;72989;-81
2024/02/07 12:57:24;;;;;;;5.70;1.60;;;;;;;11.67;100.00;99169.45;106212;1252;63054;-85
2024/02/07 12:59:51;;;;;;;4.90;2.70;;;;;;;11.64;100.00;99171.63;106147;1253;72749;-82
2024/02/07 13:02:18;;;;;;;5.00;2.00;;;;;;;11.59;100.00;99169.58;106165;1254;60427;-86
2024/02/07 13:04:47;;;;;;;4.70;2.80;;;;;;;11.52;100.00;99167.20;106290;1252;60504;-82
2024/02/07 13:07:15;;;;;;;4.40;2.00;;;;;;;11.45;100.00;99160.96;106239;1251;75163;-81
2024/02/07 13:09:43;;;;;;;3.90;2.20;;;;;;;11.40;100.00;99162.30;106193;1253;63241;-83
2024/02/07 13:12:10;;;;;;;4.10;2.00;;;;;;;11.35;100.00;99161.10;106162;1252;71189;-83
2024/02/07 13:14:54;;;;;;;4.10;2.40;;;;;;;11.33;100.00;99163.05;106301;1251;60455;-82
2024/02/07 13:17:21;;;;;;;3.10;2.00;;;;;;;11.31;100.00;99158.16;107122;1252;60465;-82
2024/02/07 13:19:48;;;;;;;4.90;2.40;;;;;;;11.30;100.00;99155.48;106547;1251;73619;-81
2024/02/07 13:22:15;;;;;;;2.90;1.80;;;;;;;11.28;100.00;99148.33;106737;1256;62780;-84
2024/02/07 13:24:43;;;;;;;3.80;2.10;;;;;;;11.26;100.00;99145.30;106394;1251;71835;-83
2024/02/07 13:27:11;;;;;;;4.70;1.80;;;;;;;11.27;100.00;99144.86;106488;1250;60421;-83
2024/02/07 13:29:40;;;;;;;6.90;3.20;;;;;;;11.27;100.00;99140.85;106462;1251;60373;-80
2024/02/07 13:32:10;;;;;;;3.70;2.60;;;;;;;11.27;100.00;99139.45;106386;1253;74840;-81
2024/02/07 13:34:37;;;;;;;8.00;3.30;;;;;;;11.27;100.00;99133.36;106412;1251;63228;-83
2024/02/07 13:37:05;;;;;;;6.00;2.80;;;;;;;11.26;100.00;99133.77;106382;1254;73656;-82
2024/02/07 13:39:32;;;;;;;4.00;2.10;;;;;;;11.26;100.00;99130.65;106423;1250;60555;-84
2024/02/07 13:42:01;;;;;;;5.60;2.70;;;;;;;11.25;100.00;99128.65;106642;1250;60382;-80
2024/02/07 13:44:28;;;;;;;5.30;2.40;;;;;;;11.25;100.00;99129.35;106633;1252;74103;-81
2024/02/07 13:46:57;;;;;;;9.10;2.80;;;;;;;11.23;100.00;99124.61;106537;1251;62827;-81
2024/02/07 13:49:24;;;;;;;5.40;2.40;;;;;;;11.25;100.00;99127.75;106240;1253;72754;-83
2024/02/07 13:51:51;;;;;;;3.50;2.30;;;;;;;11.25;100.00;99126.34;106247;1253;61738;-82
2024/02/07 13:54:19;;;;;;;5.30;3.30;;;;;;;11.23;100.00;99127.94;106440;1253;60424;-81
2024/02/07 13:56:45;;;;;;;5.00;2.60;;;;;;;11.23;100.00;99131.63;106307;1251;72854;-82
2024/02/07 13:59:13;;;;;;;5.10;2.50;;;;;;;11.23;100.00;99135.80;106289;1254;63745;-85
2024/02/07 14:01:41;;;;;;;9.50;2.90;;;;;;;11.22;100.00;99140.58;106298;1251;73572;-84
2024/02/07 14:04:08;;;;;;;5.30;3.00;;;;;;;11.21;100.00;99139.48;106603;1251;60552;-84
2024/02/07 14:06:36;;;;;;;5.80;4.10;;;;;;;11.19;100.00;99140.47;106700;1251;60523;-84
2024/02/07 14:09:03;;;;;;;7.30;2.60;;;;;;;11.18;100.00;99142.17;106283;1251;73608;-85
2024/02/07 14:11:30;;;;;;;4.90;3.00;;;;;;;11.17;100.00;99145.40;106720;1251;63255;-81
2024/02/07 14:14:00;;;;;;;5.60;3.00;;;;;;;11.19;100.00;99143.66;106459;1252;72930;-83
2024/02/07 14:16:31;;;;;;;4.40;2.90;;;;;;;11.19;100.00;99142.59;106482;1253;61699;-83
2024/02/07 14:19:00;;;;;;;7.10;2.60;;;;;;;11.18;100.00;99140.71;106395;1250;60372;-83
2024/02/07 14:21:27;;;;;;;6.00;3.20;;;;;;;11.20;100.00;99143.75;106602;1253;73847;-82
2024/02/07 14:23:54;;;;;;;11.10;4.90;;;;;;;11.19;100.00;99130.83;106534;1251;62985;-81
2024/02/07 14:26:22;;;;;;;6.20;3.10;;;;;;;11.17;100.00;99124.73;107030;1252;75666;-81
2024/02/07 14:28:49;;;;;;;5.50;2.80;;;;;;;11.18;100.00;99128.30;107459;1250;60328;-81
2024/02/07 14:31:18;;;;;;;5.60;4.00;;;;;;;11.16;100.00;99129.35;106904;1250;61402;-83
2024/02/07 14:33:44;;;;;;;8.90;5.20;;;;;;;11.15;100.00;99129.78;106608;1253;71804;-83
2024/02/07 14:36:11;;;;;;;6.40;3.00;;;;;;;11.13;100.00;99134.34;106411;1251;63471;-80
2024/02/07 14:38:38;;;;;;;5.10;2.80;;;;;;;11.13;100.00;99128.77;106638;1254;72923;-82
2024/02/07 14:41:06;;;;;;;3.40;2.60;;;;;;;11.12;100.00;99129.75;106410;1253;60555;-82
2024/02/07 14:43:33;;;;;;;3.60;2.10;;;;;;;11.10;100.00;99129.88;106944;1250;60350;-81
2024/02/07 14:46:00;;;;;;;6.00;2.70;;;;;;;11.06;100.00;99133.18;106441;1250;73625;-82
2024/02/07 14:48:28;;;;;;;5.70;3.10;;;;;;;11.03;100.00;99130.30;106378;1253;65189;-83
2024/02/07 14:50:56;;;;;;;9.70;6.40;;;;;;;10.99;100.00;99134.48;106527;1254;71494;-83
2024/02/07 14:53:23;;;;;;;4.90;2.90;;;;;;;10.96;100.00;99133.71;106349;1253;60549;-80
2024/02/07 14:55:54;;;;;;;6.30;3.50;;;;;;;10.91;100.00;99136.59;106441;1251;60462;-81
2024/02/07 14:58:22;;;;;;;3.30;2.30;;;;;;;10.84;100.00;99132.96;106625;1251;73209;-83
2024/02/07 15:00:50;;;;;;;3.90;2.80;;;;;;;10.80;100.00;99136.51;106586;1252;61760;-82
2024/02/07 15:03:16;;;;;;;7.30;2.90;;;;;;;10.75;100.00;99140.88;106561;1251;73332;-82
2024/02/07 15:05:44;;;;;;;6.50;3.50;;;;;;;10.72;100.00;99142.78;106773;1251;60616;-82
2024/02/07 15:08:11;;;;;;;9.90;3.90;;;;;;;10.67;100.00;99141.77;106679;1250;60525;-81
2024/02/07 15:10:38;;;;;;;6.00;3.10;;;;;;;10.62;100.00;99142.91;106540;1253;72882;-82
2024/02/07 15:13:08;;;;;;;6.70;3.50;;;;;;;10.57;100.00;99141.23;106680;1250;64023;-83
2024/02/07 15:15:35;;;;;;;5.70;3.40;;;;;;;10.52;100.00;99133.89;107181;1249;71884;-83
2024/02/07 15:18:04;;;;;;;8.00;5.10;;;;;;;10.47;100.00;99135.92;107415;1250;60428;-81
2024/02/07 15:20:31;;;;;;;10.60;5.50;;;;;;;10.40;100.00;99133.19;106498;1251;60607;-83
2024/02/07 15:22:59;;;;;;;9.00;4.60;;;;;;;10.32;100.00;99136.29;106496;1253;75321;-84
2024/02/07 15:25:28;;;;;;;11.70;5.60;;;;;;;10.25;100.00;99134.20;106577;1253;64170;-83
2024/02/07 15:27:56;;;;;;;6.60;4.00;;;;;;;10.16;100.00;99130.40;106696;1251;72937;-83
2024/02/07 15:30:25;;;;;;;8.10;5.30;;;;;;;10.08;100.00;99133.19;106255;1257;60561;-82
2024/02/07 15:32:52;;;;;;;12.00;5.70;;;;;;;10.02;100.00;99129.20;106482;1253;60328;-85
2024/02/07 15:35:19;;;;;;;11.20;6.40;;;;;;;9.94;100.00;99132.68;106375;1253;73811;-81
2024/02/07 15:37:46;;;;;;;8.90;4.40;;;;;;;9.87;100.00;99135.20;107629;1255;65179;-82
2024/02/07 15:40:14;;;;;;;10.00;4.10;;;;;;;9.81;100.00;99133.30;106385;1251;72779;-82
2024/02/07 15:42:42;;;;;;;6.90;3.90;;;;;;;9.75;100.00;99128.73;106415;1254;62546;-81
2024/02/07 15:45:10;;;;;;;10.60;3.80;;;;;;;9.68;100.00;99128.36;106209;1254;60354;-84
2024/02/07 15:47:37;;;;;;;6.60;3.70;;;;;;;9.63;100.00;99127.25;106146;1251;73865;-81
2024/02/07 15:50:05;;;;;;;8.20;4.10;;;;;;;9.57;100.00;99129.42;106263;1257;62636;-82
2024/02/07 15:52:32;;;;;;;7.40;4.50;;;;;;;9.53;100.00;99127.83;106095;1257;71822;-83
2024/02/07 15:55:00;;;;;;;11.00;6.10;;;;;;;9.49;100.00;99132.37;106519;1253;62034;-83
2024/02/07 15:57:26;;;;;;;11.20;6.30;;;;;;;9.44;100.00;99133.58;106614;1250;62130;-82
2024/02/07 15:59:53;;;;;;;10.30;5.70;;;;;;;9.40;100.00;99135.86;106464;1251;73244;-82
2024/02/07 16:02:21;;;;;;;7.60;4.70;;;;;;;9.32;100.00;99128.83;106070;1252;64995;-81
2024/02/07 16:04:48;;;;;;;10.40;4.90;;;;;;;9.30;100.00;99138.39;106284;1250;72396;-82
2024/02/07 16:07:15;;;;;;;8.20;4.90;;;;;;;9.25;100.00;99137.50;106530;1251;62332;-82
2024/02/07 16:09:43;;;;;;;10.20;5.10;;;;;;;9.22;100.00;99141.63;106488;1255;60435;-83
2024/02/07 16:12:10;;;;;;;9.10;4.80;;;;;;;9.18;100.00;99142.63;106467;1253;75047;-84
2024/02/07 16:14:37;;;;;;;5.20;4.20;;;;;;;9.15;100.00;99148.26;106600;1257;61763;-86
2024/02/07 16:17:04;;;;;;;11.40;4.10;;;;;;;9.12;100.00;99148.14;106744;1251;73879;-84
2024/02/07 16:19:32;;;;;;;13.60;6.20;;;;;;;9.08;100.00;99152.81;106566;1251;60466;-82
2024/02/07 16:21:59;;;;;;;9.60;4.60;;;;;;;9.04;100.00;99152.27;106601;1251;60549;-82
2024/02/07 16:24:26;;;;;;;12.40;6.90;;;;;;;9.00;100.00;99146.10;106482;1251;72824;-83
2024/02/07 16:26:55;;;;;;;15.50;10.10;;;;;;;8.95;100.00;99141.59;106650;1256;62758;-82
2024/02/07 16:29:24;;;;;;;10.80;6.20;;;;;;;8.90;100.00;99141.98;106318;1253;72337;-86
2024/02/07 16:31:52;;;;;;;8.20;5.80;;;;;;;8.84;100.00;99139.98;106113;1256;61146;-83
2024/02/07 16:34:19;;;;;;;9.80;5.10;;;;;;;8.80;100.00;99139.77;106412;1251;60938;-84
2024/02/07 16:36:47;;;;;;;10.50;5.60;;;;;;;8.77;100.00;99140.35;106879;1263;72736;-83
2024/02/07 16:39:14;;;;;;;9.40;5.20;;;;;;;8.77;100.00;99139.19;106252;1253;61636;-84